Time;durP1;ratioP1;P1;durP2;ratioP2;P2;SDS_P1;SDS_P2;PMS_P1;PMS_P2;Temp;Humidity;BMP_temperature;BMP_pressure;BME280_temperature;BME280_humidity;BME280_pressure;Samples;Min_cycle;Max_cycle;Signal;HPM_P1;HPM_P2
2023/04/29 00:02:19;;;;;;;2.00;1.00;;;11.90;99.90;;;;;;5132889;27;20219;-68
2023/04/29 00:04:47;;;;;;;2.65;1.40;;;11.90;99.90;;;;;;5133395;27;20480;-68
2023/04/29 00:07:15;;;;;;;3.40;1.80;;;11.90;99.90;;;;;;5133111;27;20274;-68
2023/04/29 00:09:42;;;;;;;2.30;1.45;;;12.00;99.90;;;;;;5133404;27;20549;-68
2023/04/29 00:12:11;;;;;;;2.30;1.17;;;12.00;99.90;;;;;;5132972;27;20180;-68
2023/04/29 00:14:38;;;;;;;2.20;1.27;;;12.00;99.90;;;;;;5133386;27;20193;-68
2023/04/29 00:17:06;;;;;;;2.00;1.10;;;11.90;99.90;;;;;;5133227;27;20848;-68
2023/04/29 00:19:34;;;;;;;2.40;1.20;;;11.90;99.90;;;;;;5133738;27;20187;-68
2023/04/29 00:22:01;;;;;;;2.60;1.73;;;12.00;99.90;;;;;;5133081;28;20188;-68
2023/04/29 00:24:29;;;;;;;2.70;1.80;;;12.00;99.90;;;;;;5133320;28;20276;-68
2023/04/29 00:26:56;;;;;;;5.72;1.52;;;12.00;99.90;;;;;;5132017;28;20905;-67
2023/04/29 00:29:26;;;;;;;2.20;1.17;;;12.00;99.90;;;;;;5133257;28;20234;-68
2023/04/29 00:31:53;;;;;;;2.60;1.20;;;12.00;99.90;;;;;;5132456;28;20603;-68
2023/04/29 00:34:21;;;;;;;3.00;1.50;;;12.00;99.90;;;;;;5133316;28;20192;-68
2023/04/29 00:36:49;;;;;;;2.30;1.20;;;12.00;99.90;;;;;;5132559;28;20520;-68
2023/04/29 00:39:16;;;;;;;3.25;1.92;;;12.00;99.90;;;;;;5132970;28;20430;-68
2023/04/29 00:41:44;;;;;;;4.70;1.60;;;12.00;99.90;;;;;;5133237;28;20279;-68
2023/04/29 00:44:11;;;;;;;2.00;1.23;;;12.00;99.90;;;;;;5132574;28;20247;-68
2023/04/29 00:46:42;;;;;;;4.03;1.20;;;12.00;99.90;;;;;;5132762;28;20473;-68
2023/04/29 00:49:10;;;;;;;2.10;1.13;;;12.00;99.90;;;;;;5133078;28;20429;-68
2023/04/29 00:51:37;;;;;;;3.60;1.52;;;12.00;99.90;;;;;;5132993;28;20942;-67
2023/04/29 00:54:05;;;;;;;2.43;1.20;;;12.00;99.90;;;;;;5132987;28;20275;-68
2023/04/29 00:56:35;;;;;;;1.95;1.00;;;12.10;99.90;;;;;;5133231;28;20512;-68
2023/04/29 00:59:04;;;;;;;2.10;1.30;;;12.00;99.90;;;;;;5132529;27;20237;-68
2023/04/29 01:01:32;;;;;;;3.27;1.60;;;12.00;99.90;;;;;;5136588;27;20456;-68
2023/04/29 01:04:02;;;;;;;3.92;2.58;;;12.00;99.90;;;;;;5136135;27;20504;-68
2023/04/29 01:06:37;;;;;;;2.33;1.30;;;12.00;99.90;;;;;;5136741;27;20194;-68
2023/04/29 01:09:20;;;;;;;2.55;1.52;;;12.10;99.90;;;;;;5136436;27;20469;-68
2023/04/29 01:11:55;;;;;;;2.50;1.20;;;12.10;99.90;;;;;;5136846;27;20184;-68
2023/04/29 01:14:24;;;;;;;2.00;1.15;;;12.10;99.90;;;;;;5135950;27;20443;-68
2023/04/29 01:16:55;;;;;;;3.70;1.43;;;12.00;99.90;;;;;;5136839;27;20760;-68
2023/04/29 01:19:46;;;;;;;2.75;2.00;;;12.00;99.90;;;;;;5136405;27;20858;-68
2023/04/29 01:22:16;;;;;;;2.90;1.80;;;12.00;99.90;;;;;;5136189;27;20187;-68
2023/04/29 01:24:45;;;;;;;2.47;1.65;;;11.90;99.90;;;;;;5136429;27;20477;-68
2023/04/29 01:27:24;;;;;;;3.10;1.17;;;11.90;99.90;;;;;;5136761;27;20184;-68
2023/04/29 01:29:59;;;;;;;2.40;1.47;;;12.00;99.90;;;;;;5116286;28;20867;-68
2023/04/29 01:32:39;;;;;;;3.43;1.27;;;12.00;99.90;;;;;;5116420;27;20441;-68
2023/04/29 01:35:15;;;;;;;2.00;1.10;;;11.90;99.90;;;;;;5136620;27;20931;-67
2023/04/29 01:37:56;;;;;;;6.35;1.40;;;11.90;99.90;;;;;;5135940;27;22523;-68
2023/04/29 01:40:34;;;;;;;2.20;1.20;;;11.90;99.90;;;;;;5135789;27;20180;-68
2023/04/29 01:43:04;;;;;;;2.00;1.17;;;11.90;99.90;;;;;;5135720;27;20433;-68
2023/04/29 01:45:35;;;;;;;2.10;1.40;;;11.90;99.90;;;;;;5136128;27;20561;-68
2023/04/29 01:48:04;;;;;;;2.10;1.17;;;11.90;99.90;;;;;;5135627;27;20433;-68
2023/04/29 01:50:31;;;;;;;2.10;1.30;;;11.90;99.90;;;;;;5136100;27;20497;-68
2023/04/29 01:52:59;;;;;;;2.47;1.10;;;11.90;99.90;;;;;;5135561;27;20486;-68
2023/04/29 01:55:28;;;;;;;2.87;1.10;;;11.90;99.90;;;;;;5136025;27;20520;-67
2023/04/29 01:57:55;;;;;;;2.63;1.60;;;11.90;99.90;;;;;;5135163;27;20434;-67
2023/04/29 02:00:23;;;;;;;2.10;1.10;;;11.90;99.90;;;;;;5135964;27;20437;-68
2023/04/29 02:02:50;;;;;;;3.30;1.57;;;11.90;99.90;;;;;;5135147;27;20938;-68
2023/04/29 02:05:18;;;;;;;2.83;1.30;;;11.90;99.90;;;;;;5135484;27;20485;-68
2023/04/29 02:07:46;;;;;;;2.20;1.17;;;11.80;99.90;;;;;;5135307;27;20467;-68
2023/04/29 02:10:14;;;;;;;3.10;1.60;;;11.80;99.90;;;;;;5135364;27;20441;-69
2023/04/29 02:12:42;;;;;;;2.00;1.00;;;11.80;99.90;;;;;;5134757;27;20448;-68
2023/04/29 02:15:10;;;;;;;4.55;1.90;;;11.80;99.90;;;;;;5135593;27;20505;-68
2023/04/29 02:17:38;;;;;;;3.57;1.90;;;11.80;99.90;;;;;;5135196;27;20278;-69
2023/04/29 02:20:09;;;;;;;4.87;2.07;;;11.80;99.90;;;;;;5135392;27;20444;-67
2023/04/29 02:22:36;;;;;;;3.55;1.80;;;11.80;99.90;;;;;;5135222;27;20451;-68
2023/04/29 02:25:05;;;;;;;2.50;1.57;;;11.80;99.90;;;;;;5135382;27;20219;-68
2023/04/29 02:27:32;;;;;;;3.35;1.50;;;11.80;99.90;;;;;;5135449;27;20439;-68
2023/04/29 02:30:01;;;;;;;2.60;1.40;;;11.80;99.90;;;;;;5134939;27;20195;-67
2023/04/29 02:32:29;;;;;;;5.10;1.33;;;11.80;99.90;;;;;;5134770;27;20910;-67
2023/04/29 02:34:56;;;;;;;2.58;1.10;;;11.80;99.90;;;;;;5135148;27;20270;-67
2023/04/29 02:37:24;;;;;;;2.72;1.65;;;11.80;99.90;;;;;;5134855;27;20184;-68
2023/04/29 02:39:51;;;;;;;2.95;1.35;;;11.80;99.90;;;;;;5135253;27;20227;-68
2023/04/29 02:42:19;;;;;;;3.23;1.87;;;11.90;99.90;;;;;;5134518;27;20587;-68
2023/04/29 02:44:46;;;;;;;4.00;1.90;;;11.90;99.90;;;;;;5134596;27;20489;-68
2023/04/29 02:47:16;;;;;;;3.47;1.70;;;11.80;99.90;;;;;;5133950;27;20904;-68
2023/04/29 02:49:43;;;;;;;3.90;1.90;;;11.80;99.90;;;;;;5134686;27;20436;-68
2023/04/29 02:52:11;;;;;;;4.60;2.20;;;11.80;99.90;;;;;;5134662;27;20520;-68
2023/04/29 02:54:39;;;;;;;5.93;2.20;;;11.80;99.90;;;;;;5134809;27;20290;-68
2023/04/29 02:57:06;;;;;;;2.60;1.45;;;11.80;99.90;;;;;;5133836;27;20190;-68
2023/04/29 02:59:34;;;;;;;2.57;1.20;;;11.80;99.90;;;;;;5134644;27;20262;-67
2023/04/29 03:02:01;;;;;;;2.67;1.73;;;11.80;99.90;;;;;;5134049;27;20508;-67
2023/04/29 03:04:31;;;;;;;2.65;1.75;;;11.80;99.90;;;;;;5134529;27;20197;-68
2023/04/29 03:06:59;;;;;;;2.40;1.30;;;11.80;99.90;;;;;;5134287;27;20223;-68
2023/04/29 03:09:27;;;;;;;2.20;1.15;;;11.90;99.90;;;;;;5134266;27;20935;-67
2023/04/29 03:11:54;;;;;;;4.00;1.53;;;11.90;99.90;;;;;;5134027;27;20274;-68
2023/04/29 03:14:22;;;;;;;5.57;3.80;;;11.90;99.90;;;;;;5134226;27;20437;-68
2023/04/29 03:16:49;;;;;;;5.67;4.60;;;11.90;99.90;;;;;;5132928;27;20693;-68
2023/04/29 03:19:17;;;;;;;5.30;4.07;;;11.90;99.90;;;;;;5134583;27;20449;-67
2023/04/29 03:21:45;;;;;;;5.68;4.63;;;11.80;99.90;;;;;;5133581;27;20433;-68
2023/04/29 03:24:13;;;;;;;7.50;4.37;;;11.80;99.90;;;;;;5133101;27;20191;-68
2023/04/29 03:26:41;;;;;;;8.75;6.30;;;11.70;99.90;;;;;;5133774;27;20472;-67
2023/04/29 03:29:09;;;;;;;10.75;8.45;;;11.70;99.90;;;;;;5134017;27;20539;-68
2023/04/29 03:31:36;;;;;;;11.48;8.57;;;11.70;99.90;;;;;;5133710;27;20267;-67
2023/04/29 03:34:04;;;;;;;12.40;8.70;;;11.70;99.90;;;;;;5134110;27;20207;-68
2023/04/29 03:36:31;;;;;;;11.03;9.43;;;11.60;99.90;;;;;;5134012;27;20449;-67
2023/04/29 03:39:00;;;;;;;8.80;6.50;;;11.70;99.90;;;;;;5133640;27;21385;-68
2023/04/29 03:41:27;;;;;;;9.57;6.27;;;11.70;99.90;;;;;;5133797;27;20776;-67
2023/04/29 03:43:59;;;;;;;5.38;4.38;;;11.70;99.90;;;;;;5133798;27;20939;-67
2023/04/29 03:46:27;;;;;;;4.10;3.23;;;11.70;99.90;;;;;;5133257;27;20210;-68
2023/04/29 03:48:55;;;;;;;3.50;2.67;;;11.70;99.90;;;;;;5133711;27;20438;-68
2023/04/29 03:51:22;;;;;;;3.50;2.50;;;11.70;99.90;;;;;;5133312;27;20780;-67
2023/04/29 03:53:50;;;;;;;4.20;2.70;;;11.70;99.90;;;;;;5133722;27;20456;-67
2023/04/29 03:56:19;;;;;;;3.53;2.40;;;11.70;99.90;;;;;;5133064;27;20519;-68
2023/04/29 03:58:48;;;;;;;3.97;1.75;;;11.70;99.90;;;;;;5133535;27;20550;-68
2023/04/29 04:01:16;;;;;;;4.53;2.03;;;11.80;99.90;;;;;;5133013;27;20623;-67
2023/04/29 04:03:43;;;;;;;3.53;2.23;;;11.80;99.90;;;;;;5133693;27;20437;-68
2023/04/29 04:06:10;;;;;;;3.33;2.10;;;11.80;99.90;;;;;;5132643;27;21036;-68
2023/04/29 04:08:39;;;;;;;4.77;3.37;;;11.90;99.90;;;;;;5133187;27;20935;-68
2023/04/29 04:11:08;;;;;;;5.17;3.27;;;11.90;99.90;;;;;;5133233;27;20437;-67
2023/04/29 04:13:45;;;;;;;4.90;2.80;;;11.90;99.90;;;;;;5133298;27;20457;-67
2023/04/29 04:16:12;;;;;;;3.80;2.10;;;11.90;99.90;;;;;;5132394;27;20468;-68
2023/04/29 04:18:40;;;;;;;3.00;2.50;;;11.90;99.90;;;;;;5133227;27;20433;-68
2023/04/29 04:21:08;;;;;;;2.65;2.33;;;11.80;99.90;;;;;;5133404;27;20934;-67
2023/04/29 04:23:35;;;;;;;3.60;1.83;;;11.80;99.90;;;;;;5133187;28;20186;-68
2023/04/29 04:26:02;;;;;;;3.22;2.45;;;11.80;99.90;;;;;;5133382;28;20481;-68
2023/04/29 04:28:30;;;;;;;2.95;2.42;;;11.80;99.90;;;;;;5133094;28;20186;-68
2023/04/29 04:30:59;;;;;;;2.87;2.07;;;11.90;99.90;;;;;;5133546;28;20188;-68
2023/04/29 04:33:27;;;;;;;4.17;3.13;;;11.90;99.90;;;;;;5133219;27;20463;-68
2023/04/29 04:35:54;;;;;;;3.30;2.80;;;11.80;99.90;;;;;;5137706;27;20455;-68
2023/04/29 04:38:24;;;;;;;4.07;3.10;;;11.90;99.90;;;;;;5137077;27;20186;-68
2023/04/29 04:40:52;;;;;;;2.90;2.17;;;11.90;99.90;;;;;;5137356;27;20444;-68
2023/04/29 04:43:20;;;;;;;3.53;2.50;;;11.90;99.90;;;;;;5136823;27;20184;-68
2023/04/29 04:45:47;;;;;;;4.23;2.47;;;11.90;99.90;;;;;;5137282;27;20477;-68
2023/04/29 04:48:16;;;;;;;5.60;2.40;;;12.00;99.90;;;;;;5136785;27;20449;-67
2023/04/29 04:50:44;;;;;;;6.47;3.30;;;12.00;99.90;;;;;;5137529;27;20433;-68
2023/04/29 04:53:11;;;;;;;4.70;3.30;;;11.90;99.90;;;;;;5136937;27;20437;-68
2023/04/29 04:55:39;;;;;;;5.57;3.23;;;11.90;99.90;;;;;;5137239;27;20515;-67
2023/04/29 04:58:06;;;;;;;5.03;3.23;;;12.00;99.90;;;;;;5136795;27;20442;-68
2023/04/29 05:00:33;;;;;;;3.73;2.33;;;12.00;99.90;;;;;;5136459;27;20437;-68
2023/04/29 05:03:01;;;;;;;3.03;1.80;;;12.10;99.90;;;;;;5126555;27;20781;-68
2023/04/29 05:05:29;;;;;;;4.17;2.30;;;12.20;99.90;;;;;;5116400;28;20485;-68
2023/04/29 05:07:57;;;;;;;3.20;2.00;;;12.20;99.90;;;;;;5116280;28;20438;-67
2023/04/29 05:10:25;;;;;;;4.37;3.00;;;12.30;99.90;;;;;;5134264;27;20799;-68
2023/04/29 05:12:52;;;;;;;4.20;3.10;;;12.30;99.90;;;;;;5136531;27;20466;-68
2023/04/29 05:15:20;;;;;;;4.27;3.27;;;12.40;99.90;;;;;;5136186;27;20465;-68
2023/04/29 05:17:47;;;;;;;3.47;2.83;;;12.50;99.90;;;;;;5136498;27;20825;-67
2023/04/29 05:20:15;;;;;;;5.40;4.25;;;12.60;99.90;;;;;;5136747;27;20448;-68
2023/04/29 05:22:44;;;;;;;6.43;4.40;;;12.70;99.90;;;;;;5136150;27;20187;-68
2023/04/29 05:25:12;;;;;;;4.10;2.50;;;12.70;99.90;;;;;;5136525;27;20475;-67
2023/04/29 05:27:39;;;;;;;3.10;2.20;;;12.70;99.90;;;;;;5136644;27;20437;-68
2023/04/29 05:30:07;;;;;;;3.90;2.63;;;12.80;99.90;;;;;;5135699;27;20869;-67
2023/04/29 05:32:35;;;;;;;4.70;3.20;;;12.90;99.90;;;;;;5136450;27;20433;-68
2023/04/29 05:35:02;;;;;;;4.40;2.40;;;12.90;99.90;;;;;;5135711;27;20434;-68
2023/04/29 05:37:30;;;;;;;5.33;2.53;;;13.00;99.90;;;;;;5136399;27;20917;-68
2023/04/29 05:39:59;;;;;;;2.83;2.37;;;13.10;99.90;;;;;;5135955;27;20433;-68
2023/04/29 05:42:27;;;;;;;3.90;2.40;;;13.20;99.90;;;;;;5136282;27;20472;-68
2023/04/29 05:44:55;;;;;;;4.03;2.47;;;13.30;99.90;;;;;;5135357;27;20524;-67
2023/04/29 05:47:22;;;;;;;5.17;2.97;;;13.40;99.90;;;;;;5135062;27;20488;-68
2023/04/29 05:49:50;;;;;;;4.07;2.97;;;13.40;99.90;;;;;;5135802;27;20581;-68
2023/04/29 05:52:17;;;;;;;3.17;1.97;;;13.50;99.90;;;;;;5135504;27;20437;-68
2023/04/29 05:54:44;;;;;;;3.03;1.70;;;13.50;99.90;;;;;;5135562;27;20441;-68
2023/04/29 05:57:13;;;;;;;3.57;1.73;;;13.50;99.90;;;;;;5135984;27;20429;-68
2023/04/29 05:59:40;;;;;;;3.27;1.63;;;13.50;99.90;;;;;;5135673;27;20441;-67
2023/04/29 06:02:09;;;;;;;2.27;1.33;;;13.60;99.90;;;;;;5135907;27;20485;-68
2023/04/29 06:04:39;;;;;;;3.20;2.10;;;13.60;99.90;;;;;;5135502;27;20437;-68
2023/04/29 06:07:07;;;;;;;4.60;2.50;;;13.70;99.90;;;;;;5135174;27;20483;-67
2023/04/29 06:09:35;;;;;;;4.60;2.67;;;13.70;99.90;;;;;;5135409;27;20796;-66
2023/04/29 06:12:03;;;;;;;4.70;2.00;;;13.80;99.90;;;;;;5135583;27;20919;-67
2023/04/29 06:14:31;;;;;;;3.30;2.17;;;13.80;99.90;;;;;;5134859;27;20433;-66
2023/04/29 06:16:59;;;;;;;2.83;1.90;;;13.90;99.90;;;;;;5135531;27;20556;-67
2023/04/29 06:19:26;;;;;;;3.20;2.00;;;14.00;99.90;;;;;;5135196;27;20429;-67
2023/04/29 06:21:54;;;;;;;2.83;1.70;;;14.20;99.90;;;;;;5135212;27;20443;-67
2023/04/29 06:24:21;;;;;;;3.20;2.40;;;14.40;99.90;;;;;;5135091;27;20442;-67
2023/04/29 06:26:49;;;;;;;2.60;1.70;;;14.50;99.90;;;;;;5135499;27;20489;-67
2023/04/29 06:29:17;;;;;;;2.77;1.37;;;14.60;99.90;;;;;;5134719;27;20444;-67
2023/04/29 06:31:45;;;;;;;4.07;1.60;;;14.70;99.90;;;;;;5135516;27;20789;-67
2023/04/29 06:34:13;;;;;;;2.90;1.67;;;14.80;99.90;;;;;;5134840;27;20765;-67
2023/04/29 06:36:40;;;;;;;4.53;1.77;;;15.00;99.90;;;;;;5134957;27;20433;-67
2023/04/29 06:39:07;;;;;;;3.40;1.83;;;15.10;99.90;;;;;;5135003;27;20433;-67
2023/04/29 06:41:35;;;;;;;2.43;1.40;;;15.40;99.90;;;;;;5135095;27;20521;-66
2023/04/29 06:44:03;;;;;;;4.00;2.00;;;15.60;99.90;;;;;;5134295;27;20433;-67
2023/04/29 06:46:30;;;;;;;2.47;1.50;;;15.80;99.90;;;;;;5134851;27;20516;-67
2023/04/29 06:48:59;;;;;;;2.83;1.20;;;16.10;99.90;;;;;;5134554;27;20450;-67
2023/04/29 06:51:26;;;;;;;3.10;1.90;;;16.40;99.90;;;;;;5134236;27;20448;-67
2023/04/29 06:53:54;;;;;;;6.83;4.13;;;16.80;99.90;;;;;;5134772;27;20999;-67
2023/04/29 06:56:22;;;;;;;3.20;2.03;;;16.90;99.90;;;;;;5134604;27;20521;-67
2023/04/29 06:58:49;;;;;;;2.87;1.37;;;17.00;99.90;;;;;;5112818;28;20521;-67
2023/04/29 07:01:17;;;;;;;2.53;1.20;;;17.10;99.90;;;;;;5114238;28;20434;-67
2023/04/29 07:03:44;;;;;;;3.07;1.57;;;17.10;99.90;;;;;;5133775;27;20443;-67
2023/04/29 07:06:13;;;;;;;2.70;1.30;;;17.20;99.90;;;;;;5134630;27;20572;-67
2023/04/29 07:08:40;;;;;;;2.60;1.20;;;17.20;99.90;;;;;;5134132;27;20566;-67
2023/04/29 07:11:07;;;;;;;6.83;1.40;;;17.40;99.90;;;;;;5134623;27;20430;-67
2023/04/29 07:13:35;;;;;;;2.30;1.50;;;17.60;99.60;;;;;;5134024;27;20440;-67
2023/04/29 07:16:02;;;;;;;4.10;1.77;;;17.80;99.20;;;;;;5134699;27;20469;-67
2023/04/29 07:18:29;;;;;;;2.57;1.27;;;18.00;98.40;;;;;;5134276;27;20442;-67
2023/04/29 07:21:01;;;;;;;2.30;1.20;;;18.20;97.90;;;;;;5134265;27;20494;-67
2023/04/29 07:23:30;;;;;;;2.50;1.50;;;18.30;97.40;;;;;;5133871;27;20438;-67
2023/04/29 07:25:57;;;;;;;3.57;1.30;;;18.30;96.50;;;;;;5134293;27;20835;-67
2023/04/29 07:28:24;;;;;;;2.20;1.10;;;18.20;95.50;;;;;;5133621;27;20437;-67
2023/04/29 07:30:51;;;;;;;3.70;1.20;;;18.10;95.20;;;;;;5132665;27;20443;-67
2023/04/29 07:33:18;;;;;;;2.87;1.40;;;18.00;95.20;;;;;;5133983;27;20440;-67
2023/04/29 07:35:45;;;;;;;3.20;1.40;;;18.10;95.50;;;;;;5133888;27;20456;-67
2023/04/29 07:38:12;;;;;;;2.20;1.30;;;18.20;95.40;;;;;;5133938;27;20469;-67
2023/04/29 07:40:42;;;;;;;4.20;1.30;;;18.30;95.20;;;;;;5133945;27;20437;-67
2023/04/29 07:43:09;;;;;;;2.10;0.90;;;18.30;94.90;;;;;;5133775;27;20466;-67
2023/04/29 07:45:36;;;;;;;2.00;1.00;;;18.30;95.00;;;;;;5133976;27;20433;-67
2023/04/29 07:48:03;;;;;;;2.10;1.10;;;18.40;93.60;;;;;;5134020;27;20974;-67
2023/04/29 07:50:30;;;;;;;5.00;1.27;;;18.50;93.90;;;;;;5132901;27;20491;-67
2023/04/29 07:52:59;;;;;;;3.00;1.30;;;18.80;93.30;;;;;;5113649;28;20470;-67
2023/04/29 07:55:26;;;;;;;2.53;1.17;;;19.10;92.70;;;;;;5117373;27;20442;-68
2023/04/29 07:57:55;;;;;;;2.73;1.10;;;19.30;92.80;;;;;;5114555;27;20434;-67
2023/04/29 08:00:22;;;;;;;3.10;1.10;;;19.60;91.90;;;;;;5114407;27;20524;-68
2023/04/29 08:02:51;;;;;;;3.37;1.10;;;19.70;90.90;;;;;;5112344;27;20499;-67
2023/04/29 08:05:19;;;;;;;4.20;1.33;;;19.90;90.00;;;;;;5112331;28;20460;-68
2023/04/29 08:07:47;;;;;;;2.20;1.00;;;20.00;90.00;;;;;;5112657;27;20485;-68
2023/04/29 08:10:14;;;;;;;1.93;0.90;;;20.20;88.10;;;;;;5111149;28;20434;-67
2023/04/29 08:12:41;;;;;;;2.17;0.90;;;20.40;87.10;;;;;;5113045;28;20871;-68
2023/04/29 08:15:12;;;;;;;1.80;0.80;;;20.50;81.50;;;;;;5111813;28;20466;-68
2023/04/29 08:17:40;;;;;;;6.10;1.23;;;20.80;79.20;;;;;;5118330;27;20438;-68
2023/04/29 08:20:08;;;;;;;1.87;0.73;;;21.00;77.50;;;;;;5114912;28;20522;-67
2023/04/29 08:22:35;;;;;;;2.33;0.73;;;21.20;78.90;;;;;;5117425;27;20454;-68
2023/04/29 08:25:04;;;;;;;3.67;1.07;;;21.40;72.90;;;;;;5130067;28;20972;-67
2023/04/29 08:27:31;;;;;;;2.70;0.87;;;21.50;70.10;;;;;;5130150;28;20481;-68
2023/04/29 08:29:59;;;;;;;2.20;0.97;;;21.70;72.90;;;;;;5129898;28;20482;-68
2023/04/29 08:32:27;;;;;;;2.47;1.03;;;22.00;75.10;;;;;;5115590;28;20437;-68
2023/04/29 08:34:55;;;;;;;3.20;0.80;;;22.20;70.10;;;;;;5111878;28;20943;-68
2023/04/29 08:37:22;;;;;;;1.90;0.90;;;22.20;66.10;;;;;;5111675;28;20579;-68
2023/04/29 08:39:49;;;;;;;3.00;1.07;;;22.20;65.60;;;;;;5111741;28;20782;-67
2023/04/29 08:42:21;;;;;;;2.70;1.17;;;22.30;66.00;;;;;;5111589;28;20478;-69
2023/04/29 08:44:49;;;;;;;2.50;0.80;;;22.40;64.50;;;;;;5111208;28;20511;-68
2023/04/29 08:47:17;;;;;;;4.90;1.10;;;22.40;61.90;;;;;;5111574;28;20531;-68
2023/04/29 08:49:46;;;;;;;2.17;0.90;;;22.30;61.80;;;;;;5112420;28;20830;-68
2023/04/29 08:52:13;;;;;;;1.90;0.73;;;22.20;62.20;;;;;;5116966;28;20520;-68
2023/04/29 08:54:40;;;;;;;2.90;0.90;;;22.10;61.30;;;;;;5130058;28;20825;-68
2023/04/29 08:57:10;;;;;;;1.97;0.70;;;22.20;62.00;;;;;;5128438;28;20437;-68
2023/04/29 08:59:38;;;;;;;3.00;1.27;;;22.40;63.00;;;;;;5129519;28;20497;-68
2023/04/29 09:02:10;;;;;;;3.50;0.90;;;22.60;62.00;;;;;;5130275;28;20444;-68
2023/04/29 09:04:47;;;;;;;4.27;1.53;;;22.90;61.90;;;;;;5130103;28;20516;-69
2023/04/29 09:07:17;;;;;;;2.10;0.70;;;23.00;58.90;;;;;;5111362;28;20481;-68
2023/04/29 09:09:53;;;;;;;1.83;0.70;;;23.00;59.60;;;;;;5111837;28;20446;-68
2023/04/29 09:12:21;;;;;;;1.60;0.70;;;23.30;62.10;;;;;;5126324;28;20927;-68
2023/04/29 09:14:48;;;;;;;1.90;1.00;;;23.60;59.30;;;;;;5129147;28;20596;-68
2023/04/29 09:17:17;;;;;;;2.20;0.93;;;24.00;57.20;;;;;;5129434;28;20452;-69
2023/04/29 09:19:45;;;;;;;2.43;0.87;;;24.30;55.60;;;;;;5129212;27;20516;-68
2023/04/29 09:22:12;;;;;;;1.73;0.73;;;24.50;54.90;;;;;;5113395;27;20518;-68
2023/04/29 09:24:42;;;;;;;2.33;0.90;;;24.60;54.20;;;;;;5114877;27;20487;-68
2023/04/29 09:27:10;;;;;;;1.80;0.70;;;24.50;54.20;;;;;;5118299;27;20513;-68
2023/04/29 09:29:38;;;;;;;2.33;1.00;;;24.60;54.10;;;;;;5114478;27;20441;-68
2023/04/29 09:32:20;;;;;;;2.20;0.80;;;24.90;54.50;;;;;;5115049;27;20434;-68
2023/04/29 09:34:47;;;;;;;1.77;0.80;;;25.10;53.60;;;;;;5114788;27;20430;-68
2023/04/29 09:37:24;;;;;;;2.63;0.77;;;25.00;48.70;;;;;;5114866;27;20430;-68
2023/04/29 09:39:53;;;;;;;3.30;0.60;;;25.00;49.80;;;;;;5115115;27;20434;-68
2023/04/29 09:42:21;;;;;;;2.20;0.80;;;25.10;50.70;;;;;;5114697;27;20817;-68
2023/04/29 09:44:48;;;;;;;2.13;0.73;;;25.20;48.40;;;;;;5114088;27;20446;-68
2023/04/29 09:47:16;;;;;;;2.13;0.80;;;25.00;47.50;;;;;;5114194;27;20477;-69
2023/04/29 09:49:44;;;;;;;2.03;0.77;;;24.90;47.40;;;;;;5114145;27;20438;-68
2023/04/29 09:52:13;;;;;;;1.90;0.70;;;24.80;48.40;;;;;;5132320;27;20437;-68
2023/04/29 09:54:42;;;;;;;1.93;0.80;;;24.70;48.90;;;;;;5126917;27;20488;-68
2023/04/29 09:57:13;;;;;;;2.50;0.70;;;24.50;49.70;;;;;;5113796;27;20802;-68
2023/04/29 09:59:42;;;;;;;2.27;0.93;;;24.50;49.40;;;;;;5113711;27;20936;-69
2023/04/29 10:02:15;;;;;;;1.80;0.80;;;24.60;48.80;;;;;;5127377;27;20509;-68
2023/04/29 10:04:44;;;;;;;2.00;0.90;;;24.50;47.40;;;;;;5132241;27;20433;-68
2023/04/29 10:07:15;;;;;;;1.93;0.87;;;24.50;47.30;;;;;;5130958;27;20546;-68
2023/04/29 10:09:44;;;;;;;1.80;0.80;;;24.50;49.30;;;;;;5131732;27;20473;-69
2023/04/29 10:12:16;;;;;;;1.97;1.10;;;24.50;53.00;;;;;;5131900;27;20726;-69
2023/04/29 10:14:48;;;;;;;1.90;0.90;;;24.80;54.50;;;;;;5130851;27;20959;-68
2023/04/29 10:17:20;;;;;;;1.70;0.73;;;25.00;53.80;;;;;;5131231;27;20449;-68
2023/04/29 10:19:53;;;;;;;1.80;0.90;;;25.20;54.30;;;;;;5131999;27;20434;-68
2023/04/29 10:22:30;;;;;;;3.97;1.03;;;25.40;51.70;;;;;;5113372;27;20798;-68
2023/04/29 10:24:59;;;;;;;3.77;0.77;;;25.50;52.00;;;;;;5113574;27;20813;-68
2023/04/29 10:27:32;;;;;;;2.83;0.70;;;25.40;47.90;;;;;;5131068;27;20938;-68
2023/04/29 10:30:00;;;;;;;7.23;0.97;;;25.50;48.00;;;;;;5131371;27;20437;-68
2023/04/29 10:32:30;;;;;;;1.70;0.80;;;25.50;48.80;;;;;;5130512;27;20447;-68
2023/04/29 10:34:58;;;;;;;2.60;1.00;;;25.50;45.90;;;;;;5113179;27;20437;-68
2023/04/29 10:37:26;;;;;;;3.40;1.57;;;25.50;46.10;;;;;;5121058;27;20444;-68
2023/04/29 10:40:01;;;;;;;1.90;0.70;;;25.60;46.90;;;;;;5131290;27;20433;-68
2023/04/29 10:42:38;;;;;;;2.50;0.80;;;25.60;47.20;;;;;;5113063;27;20432;-69
2023/04/29 10:45:28;;;;;;;1.80;0.70;;;25.60;45.20;;;;;;5117238;27;20441;-69
2023/04/29 10:48:14;;;;;;;2.40;0.60;;;25.70;43.40;;;;;;5117155;27;20542;-68
2023/04/29 10:51:02;;;;;;;1.63;0.70;;;26.00;44.30;;;;;;5116472;27;20921;-68
2023/04/29 10:53:30;;;;;;;1.60;0.60;;;26.10;42.70;;;;;;5128608;27;20441;-68
2023/04/29 10:55:59;;;;;;;1.80;0.70;;;26.20;42.00;;;;;;5124347;27;21458;-69
2023/04/29 10:58:40;;;;;;;2.00;0.80;;;26.30;42.10;;;;;;5114559;27;20793;-68
2023/04/29 11:01:10;;;;;;;1.73;0.67;;;26.40;40.70;;;;;;5114394;27;20426;-68
2023/04/29 11:04:00;;;;;;;1.80;0.70;;;26.30;39.10;;;;;;5114497;27;20529;-68
2023/04/29 11:06:41;;;;;;;1.60;0.60;;;26.30;39.30;;;;;;5130171;27;20787;-68
2023/04/29 11:09:18;;;;;;;2.10;0.80;;;26.30;39.10;;;;;;5132075;27;20869;-68
2023/04/29 11:11:56;;;;;;;1.60;0.70;;;26.40;39.40;;;;;;5126145;27;20446;-68
2023/04/29 11:14:27;;;;;;;1.90;0.80;;;26.40;41.90;;;;;;5113283;27;20491;-68
2023/04/29 11:16:57;;;;;;;1.90;0.80;;;26.30;42.10;;;;;;5114121;27;20470;-68
2023/04/29 11:19:27;;;;;;;2.30;0.80;;;26.20;42.60;;;;;;5113325;27;20521;-68
2023/04/29 11:22:16;;;;;;;3.10;0.80;;;26.10;42.20;;;;;;5115159;27;20969;-68
2023/04/29 11:24:51;;;;;;;3.53;0.70;;;26.20;44.10;;;;;;5113604;27;20442;-68
2023/04/29 11:27:19;;;;;;;2.43;0.93;;;26.40;43.60;;;;;;5115927;27;20503;-68
2023/04/29 11:29:49;;;;;;;2.13;0.80;;;26.30;43.10;;;;;;5113265;27;20430;-68
2023/04/29 11:32:20;;;;;;;2.43;0.80;;;26.30;41.40;;;;;;5116637;27;20439;-68
2023/04/29 11:34:48;;;;;;;1.60;0.70;;;26.20;39.80;;;;;;5113395;27;20435;-68
2023/04/29 11:37:21;;;;;;;1.77;0.80;;;26.00;42.20;;;;;;5113365;27;20441;-68
2023/04/29 11:39:49;;;;;;;2.57;1.10;;;26.10;44.00;;;;;;5113028;28;20945;-69
2023/04/29 11:42:20;;;;;;;2.00;0.80;;;26.20;42.20;;;;;;5120534;27;20442;-69
2023/04/29 11:44:52;;;;;;;1.80;0.70;;;26.20;42.10;;;;;;5125704;27;20441;-68
2023/04/29 11:47:20;;;;;;;1.90;0.70;;;26.10;41.50;;;;;;5120669;27;20513;-68
2023/04/29 11:49:47;;;;;;;2.10;1.10;;;26.10;41.00;;;;;;5125111;27;20449;-68
2023/04/29 11:52:15;;;;;;;2.00;0.83;;;25.90;40.50;;;;;;5122516;27;20502;-68
2023/04/29 11:54:42;;;;;;;2.00;0.80;;;25.30;40.90;;;;;;5119356;27;20442;-67
2023/04/29 11:57:11;;;;;;;3.47;1.83;;;24.70;41.80;;;;;;5124251;27;20458;-68
2023/04/29 11:59:39;;;;;;;1.90;0.67;;;24.00;42.70;;;;;;5117552;27;20445;-68
2023/04/29 12:02:12;;;;;;;2.00;1.00;;;23.50;45.10;;;;;;5122023;27;20488;-68
2023/04/29 12:04:46;;;;;;;3.00;1.30;;;22.90;45.30;;;;;;5123662;27;20450;-68
2023/04/29 12:07:16;;;;;;;2.10;0.90;;;22.40;47.20;;;;;;5120287;27;20441;-68
2023/04/29 12:09:44;;;;;;;4.13;1.07;;;21.90;49.20;;;;;;5115004;27;20532;-68
2023/04/29 12:12:11;;;;;;;2.90;1.00;;;21.50;51.10;;;;;;5119628;27;20465;-68
2023/04/29 12:14:40;;;;;;;2.50;1.40;;;21.20;53.50;;;;;;5122061;27;20858;-68
2023/04/29 12:17:10;;;;;;;4.80;1.20;;;20.90;55.50;;;;;;5120294;27;20469;-68
2023/04/29 12:19:39;;;;;;;2.30;1.20;;;20.60;57.30;;;;;;5122160;27;20425;-68
2023/04/29 12:22:06;;;;;;;5.80;1.57;;;20.40;59.10;;;;;;5120730;27;20480;-68
2023/04/29 12:24:35;;;;;;;2.57;1.50;;;20.20;60.90;;;;;;5117914;27;20462;-68
2023/04/29 12:27:03;;;;;;;2.70;1.50;;;20.00;62.80;;;;;;5122758;28;20994;-67
2023/04/29 12:29:32;;;;;;;3.67;1.73;;;19.90;64.80;;;;;;5120592;28;20478;-68
2023/04/29 12:31:59;;;;;;;3.83;1.73;;;19.80;66.60;;;;;;5120230;28;20438;-68
2023/04/29 12:34:29;;;;;;;2.97;1.70;;;19.70;67.60;;;;;;5121197;28;20433;-68
2023/04/29 12:36:57;;;;;;;2.30;1.20;;;19.70;68.90;;;;;;5122414;28;20946;-68
2023/04/29 12:39:25;;;;;;;3.80;1.73;;;19.60;71.10;;;;;;5125393;28;20504;-68
2023/04/29 12:41:56;;;;;;;4.33;1.80;;;19.70;71.80;;;;;;5119741;28;20465;-67
2023/04/29 12:44:24;;;;;;;2.63;1.60;;;19.80;71.90;;;;;;5119912;28;20919;-67
2023/04/29 12:46:52;;;;;;;3.00;1.77;;;19.90;72.50;;;;;;5118597;28;20441;-68
2023/04/29 12:49:20;;;;;;;3.73;1.70;;;20.00;71.80;;;;;;5115824;28;20564;-68
2023/04/29 12:51:49;;;;;;;3.63;1.60;;;20.20;71.80;;;;;;5125654;28;20810;-68
2023/04/29 12:54:16;;;;;;;2.97;1.50;;;20.40;71.30;;;;;;5121815;28;20465;-68
2023/04/29 12:56:43;;;;;;;3.00;1.53;;;20.70;71.40;;;;;;5121681;27;20433;-68